Time;durP1;ratioP1;P1;durP2;ratioP2;P2;SDS_P1;SDS_P2;PMS_P1;PMS_P2;Temp;Humidity;BMP_temperature;BMP_pressure;BME280_temperature;BME280_humidity;BME280_pressure;Samples;Min_cycle;Max_cycle;Signal;HPM_P1;HPM_P2
2023/09/09 00:00:52;;;;;;;17.30;11.60;;;;;;;17.48;90.21;100970.33;218350;1289;140933;-86
2023/09/09 00:05:52;;;;;;;16.80;9.90;;;;;;;17.44;89.68;100968.21;218468;1288;140063;-87
2023/09/09 00:10:54;;;;;;;17.10;11.20;;;;;;;17.39;90.21;100969.04;217763;1289;141842;-86
2023/09/09 00:15:55;;;;;;;14.40;9.20;;;;;;;17.36;90.11;100963.07;218323;1288;139754;-87
2023/09/09 00:20:56;;;;;;;15.30;10.50;;;;;;;17.32;90.44;100959.20;217674;1288;141609;-87
2023/09/09 00:25:57;;;;;;;16.20;10.60;;;;;;;17.29;90.74;100960.91;218387;1288;96883;-86
2023/09/09 00:30:57;;;;;;;18.90;11.30;;;;;;;17.25;91.07;100957.84;217678;1288;142118;-87
2023/09/09 00:36:02;;;;;;;15.50;10.30;;;;;;;17.21;90.92;100954.92;218278;1288;139671;-86
2023/09/09 00:41:17;;;;;;;22.60;13.60;;;;;;;17.17;91.28;100955.27;217788;1288;142064;-86
2023/09/09 00:46:17;;;;;;;18.80;12.30;;;;;;;17.13;91.39;100950.38;218303;1289;139808;-86
2023/09/09 00:51:18;;;;;;;20.50;14.10;;;;;;;17.11;91.56;100947.45;217782;1288;141365;-87
2023/09/09 00:56:18;;;;;;;15.60;11.50;;;;;;;17.08;91.68;100949.86;218538;1288;96098;-86
2023/09/09 01:01:19;;;;;;;19.90;12.90;;;;;;;17.05;92.29;100945.28;217887;1288;141831;-87
2023/09/09 01:06:21;;;;;;;20.80;14.00;;;;;;;17.03;92.35;100946.48;218380;1288;139878;-87
2023/09/09 01:11:21;;;;;;;15.80;10.90;;;;;;;17.01;92.23;100940.61;218209;1289;141118;-87
2023/09/09 01:16:22;;;;;;;19.80;13.10;;;;;;;16.98;92.42;100946.11;218501;1289;139403;-87
2023/09/09 01:21:27;;;;;;;21.50;14.60;;;;;;;16.97;92.38;100949.06;217773;1289;142324;-86
2023/09/09 01:26:28;;;;;;;21.50;14.50;;;;;;;16.95;92.26;100947.41;218892;1289;95812;-87
2023/09/09 01:31:28;;;;;;;22.10;14.20;;;;;;;16.94;92.60;100942.09;217777;1289;140897;-86
2023/09/09 01:36:29;;;;;;;26.50;17.40;;;;;;;16.93;92.77;100945.52;218318;1288;141519;-86
2023/09/09 01:41:29;;;;;;;22.60;15.50;;;;;;;16.93;92.85;100946.94;217854;1288;140942;-87
2023/09/09 01:46:30;;;;;;;22.30;16.10;;;;;;;16.91;93.03;100944.66;218463;1289;140225;-86
2023/09/09 01:51:32;;;;;;;18.70;13.80;;;;;;;16.92;92.89;100941.23;217813;1288;141131;-86
2023/09/09 01:56:32;;;;;;;22.00;15.60;;;;;;;16.91;92.88;100941.79;218308;1288;96121;-86
2023/09/09 02:01:33;;;;;;;21.60;13.60;;;;;;;16.90;92.82;100949.98;217832;1289;141918;-86
2023/09/09 02:06:34;;;;;;;22.00;15.40;;;;;;;16.87;92.72;100946.10;218173;1290;140373;-87
2023/09/09 02:11:34;;;;;;;20.80;14.40;;;;;;;16.86;92.78;100947.39;217856;1288;140937;-86
2023/09/09 02:16:34;;;;;;;19.40;14.40;;;;;;;16.84;93.38;100946.84;218305;1288;139838;-86
2023/09/09 02:21:35;;;;;;;25.00;15.80;;;;;;;16.84;93.68;100947.88;217809;1288;142360;-85
2023/09/09 02:26:35;;;;;;;26.60;17.00;;;;;;;16.82;93.45;100945.73;218352;1288;96063;-87
2023/09/09 02:31:36;;;;;;;22.30;16.40;;;;;;;16.81;93.56;100947.09;217719;1288;142676;-86
2023/09/09 02:36:36;;;;;;;23.30;16.60;;;;;;;16.80;94.01;100945.44;218341;1289;140514;-86
2023/09/09 02:41:37;;;;;;;20.30;15.00;;;;;;;16.80;94.17;100951.00;217705;1288;141805;-86
2023/09/09 02:46:37;;;;;;;23.80;15.40;;;;;;;16.79;94.37;100951.64;218372;1288;139890;-86
2023/09/09 02:51:38;;;;;;;22.20;14.90;;;;;;;16.77;94.52;100955.30;217774;1288;141210;-86
2023/09/09 02:56:38;;;;;;;22.70;15.60;;;;;;;16.74;94.68;100955.95;218478;1289;95899;-86
2023/09/09 03:01:39;;;;;;;24.20;15.50;;;;;;;16.71;94.64;100947.88;217796;1289;143031;-87
2023/09/09 03:06:39;;;;;;;25.30;17.10;;;;;;;16.69;95.69;100944.46;218295;1289;140263;-86
2023/09/09 03:11:40;;;;;;;28.10;16.20;;;;;;;16.67;96.04;100943.77;217827;1288;143294;-86
2023/09/09 03:16:41;;;;;;;25.30;16.60;;;;;;;16.64;95.97;100948.79;218668;1289;143125;-86
2023/09/09 03:21:41;;;;;;;26.20;16.70;;;;;;;16.59;96.14;100946.09;218083;1289;144371;-86
2023/09/09 03:26:42;;;;;;;25.30;16.60;;;;;;;16.56;96.41;100946.68;218349;1289;96100;-86
2023/09/09 03:31:42;;;;;;;23.20;16.90;;;;;;;16.52;96.25;100950.42;217880;1288;141505;-86
2023/09/09 03:36:43;;;;;;;24.30;16.20;;;;;;;16.49;96.36;100953.53;218431;1288;139721;-85
2023/09/09 03:41:43;;;;;;;26.30;16.70;;;;;;;16.46;96.79;100949.26;217798;1288;142576;-86
2023/09/09 03:46:44;;;;;;;24.20;16.50;;;;;;;16.43;97.17;100951.19;218327;1289;139210;-86
2023/09/09 03:51:44;;;;;;;27.00;17.70;;;;;;;16.40;97.14;100948.27;218432;1288;139803;-86
2023/09/09 03:56:45;;;;;;;24.80;18.60;;;;;;;16.37;97.74;100951.59;218548;1289;96012;-86
2023/09/09 04:01:51;;;;;;;24.60;17.50;;;;;;;16.35;97.69;100950.39;218145;1290;141428;-86
2023/09/09 04:07:01;;;;;;;22.30;16.60;;;;;;;16.31;97.71;100954.93;218860;1289;138334;-86
2023/09/09 04:12:03;;;;;;;25.00;17.10;;;;;;;16.27;97.87;100955.67;218124;1289;142658;-87
2023/09/09 04:17:10;;;;;;;26.10;19.00;;;;;;;16.25;98.23;100959.73;218732;1289;139150;-86
2023/09/09 04:22:18;;;;;;;25.90;18.30;;;;;;;16.22;98.67;100965.13;217939;1288;140941;-86
2023/09/09 04:27:20;;;;;;;27.30;18.20;;;;;;;16.18;98.55;100958.79;218396;1291;139465;-86
2023/09/09 04:32:32;;;;;;;27.70;18.30;;;;;;;16.16;98.95;100963.95;218008;1289;141308;-86
2023/09/09 04:37:32;;;;;;;27.10;18.70;;;;;;;16.13;99.05;100962.61;218169;1288;137876;-87
2023/09/09 04:42:33;;;;;;;24.90;18.90;;;;;;;16.10;99.44;100965.16;218054;1288;140660;-86
2023/09/09 04:47:34;;;;;;;28.60;18.50;;;;;;;16.09;99.75;100957.31;219013;1290;138063;-86
2023/09/09 04:52:35;;;;;;;29.30;18.30;;;;;;;16.07;99.88;100955.34;217839;1289;211700;-86
2023/09/09 04:57:35;;;;;;;27.60;18.70;;;;;;;16.07;99.99;100955.50;218408;1289;139154;-87
2023/09/09 05:02:37;;;;;;;27.20;18.90;;;;;;;16.07;99.92;100957.56;217995;1288;139507;-87
2023/09/09 05:07:38;;;;;;;31.50;20.60;;;;;;;16.08;100.00;100959.61;218189;1288;139753;-88
2023/09/09 05:12:38;;;;;;;25.20;18.60;;;;;;;16.10;100.00;100962.39;217767;1289;141200;-87
2023/09/09 05:17:39;;;;;;;24.90;19.50;;;;;;;16.12;100.00;100964.68;218392;1288;139616;-87
2023/09/09 05:22:39;;;;;;;29.10;20.70;;;;;;;16.17;100.00;100967.13;217960;1288;143397;-87
2023/09/09 05:27:40;;;;;;;27.00;19.80;;;;;;;16.22;100.00;100961.48;218299;1290;139738;-86
2023/09/09 05:32:40;;;;;;;28.40;22.20;;;;;;;16.26;100.00;100965.67;218234;1288;143114;-86
2023/09/09 05:37:42;;;;;;;32.50;21.30;;;;;;;16.34;100.00;100970.25;218279;1288;140704;-86
2023/09/09 05:42:43;;;;;;;35.80;23.30;;;;;;;16.41;100.00;100967.06;217954;1288;141957;-86
2023/09/09 05:47:44;;;;;;;30.00;22.70;;;;;;;16.49;100.00;100970.61;218391;1289;140202;-86
2023/09/09 05:52:45;;;;;;;34.40;22.90;;;;;;;16.57;100.00;100967.55;217886;1289;141440;-87
2023/09/09 05:57:45;;;;;;;29.90;20.90;;;;;;;16.70;100.00;100968.92;218379;1288;139716;-88
2023/09/09 06:02:46;;;;;;;32.40;22.30;;;;;;;16.81;100.00;100975.05;218117;1288;141822;-86
2023/09/09 06:07:47;;;;;;;29.60;20.00;;;;;;;16.93;100.00;100978.17;218277;1288;140275;-86
2023/09/09 06:12:48;;;;;;;34.20;22.20;;;;;;;17.09;100.00;100980.05;217897;1288;140920;-86
2023/09/09 06:17:49;;;;;;;30.70;21.40;;;;;;;17.27;100.00;100978.41;218239;1290;140637;-87
2023/09/09 06:22:50;;;;;;;31.90;20.10;;;;;;;17.45;100.00;100976.71;217871;1288;142069;-86
2023/09/09 06:27:50;;;;;;;29.80;20.90;;;;;;;17.67;100.00;100979.06;218269;1288;140040;-87
2023/09/09 06:32:51;;;;;;;34.50;21.00;;;;;;;17.87;100.00;100983.32;217993;1290;143051;-86
2023/09/09 06:37:52;;;;;;;29.00;21.60;;;;;;;18.10;100.00;100986.11;218542;1290;139546;-86
2023/09/09 06:43:14;;;;;;;27.30;19.30;;;;;;;18.30;100.00;100987.97;217926;1288;140913;-86
2023/09/09 06:48:30;;;;;;;27.00;19.80;;;;;;;18.49;99.84;100996.85;218577;1290;139976;-87
2023/09/09 06:53:31;;;;;;;29.10;19.90;;;;;;;18.65;99.52;100999.67;217916;1289;139848;-87
2023/09/09 06:58:35;;;;;;;28.00;19.80;;;;;;;18.82;98.71;100997.70;218450;1289;139792;-87
2023/09/09 07:03:54;;;;;;;26.20;18.20;;;;;;;18.97;98.52;101005.61;217573;1293;140794;-86
2023/09/09 07:09:01;;;;;;;26.80;18.70;;;;;;;19.16;98.34;101005.83;218720;1288;96111;-86
2023/09/09 07:14:02;;;;;;;27.00;18.60;;;;;;;19.35;97.18;101005.33;217779;1289;140988;-86
2023/09/09 07:19:03;;;;;;;25.50;18.10;;;;;;;19.52;97.10;101008.09;218270;1289;139896;-86
2023/09/09 07:24:04;;;;;;;24.30;16.80;;;;;;;19.74;95.51;101007.88;217998;1291;151446;-88
2023/09/09 07:29:04;;;;;;;23.70;16.20;;;;;;;19.93;93.82;101007.61;217844;1288;142364;-86
2023/09/09 07:34:05;;;;;;;19.90;14.70;;;;;;;20.14;93.40;101008.30;218387;1289;140382;-88
2023/09/09 07:39:06;;;;;;;20.90;14.20;;;;;;;20.42;91.46;101007.27;217920;1289;141484;-89
2023/09/09 07:44:06;;;;;;;24.30;14.50;;;;;;;20.65;89.89;101002.80;218432;1288;140070;-87
2023/09/09 07:49:07;;;;;;;20.90;14.30;;;;;;;20.89;88.84;101002.95;217863;1288;141484;-87
2023/09/09 07:54:10;;;;;;;20.20;14.30;;;;;;;21.16;88.21;101000.18;218285;1289;140181;-89
2023/09/09 07:59:11;;;;;;;18.70;13.20;;;;;;;21.43;86.27;101000.16;217757;1288;141896;-87
2023/09/09 08:04:12;;;;;;;21.40;12.30;;;;;;;21.69;84.48;101004.29;218421;1288;139986;-85
2023/09/09 08:09:13;;;;;;;20.50;12.60;;;;;;;21.90;83.46;101001.49;217794;1290;141397;-87
2023/09/09 08:14:13;;;;;;;20.30;12.20;;;;;;;22.15;82.86;101002.04;218505;1288;95909;-87
2023/09/09 08:19:14;;;;;;;18.30;12.70;;;;;;;22.43;82.00;101009.27;217867;1289;140722;-86
2023/09/09 08:24:14;;;;;;;18.40;10.80;;;;;;;22.71;80.88;101004.71;218289;1288;139176;-87
2023/09/09 08:29:15;;;;;;;16.80;10.70;;;;;;;22.99;80.23;101007.06;217740;1288;140591;-86
2023/09/09 08:34:15;;;;;;;19.70;10.10;;;;;;;23.27;79.07;101012.21;218138;1288;139359;-87
2023/09/09 08:39:19;;;;;;;16.60;10.00;;;;;;;23.61;78.31;101007.81;217840;1290;141589;-87
2023/09/09 08:44:31;;;;;;;16.70;10.60;;;;;;;23.94;75.43;101004.79;218261;1290;96844;-88
2023/09/09 08:49:35;;;;;;;14.70;9.80;;;;;;;24.30;75.40;101009.86;217907;1289;142598;-86
2023/09/09 08:54:36;;;;;;;17.80;9.40;;;;;;;24.79;74.64;101010.96;218371;1288;139039;-88
2023/09/09 08:59:38;;;;;;;14.20;9.20;;;;;;;25.41;72.90;101009.17;217822;1288;141096;-87
2023/09/09 09:04:39;;;;;;;15.00;9.40;;;;;;;26.09;70.56;101002.13;218362;1288;138815;-89
2023/09/09 09:09:39;;;;;;;16.50;9.80;;;;;;;26.86;70.12;101003.70;217894;1288;141420;-88
2023/09/09 09:14:47;;;;;;;13.50;9.30;;;;;;;27.63;67.64;101005.30;218575;1289;96196;-89
2023/09/09 09:19:50;;;;;;;19.40;9.50;;;;;;;28.35;65.88;101001.60;217758;1290;143065;-89
2023/09/09 09:25:01;;;;;;;14.20;9.10;;;;;;;29.18;65.42;101000.98;218622;1288;138921;-87
2023/09/09 09:30:01;;;;;;;12.90;7.90;;;;;;;29.89;61.52;101004.71;217714;1288;139700;-89
2023/09/09 09:35:05;;;;;;;15.00;9.30;;;;;;;30.62;58.67;101002.22;218372;1288;138527;-88
2023/09/09 09:40:12;;;;;;;;;;;;;;;31.12;55.74;101004.17;217809;1288;140497;-86
2023/09/09 09:45:26;;;;;;;12.30;7.60;;;;;;;31.59;54.72;100998.42;218405;1289;125239;-88
2023/09/09 09:50:32;;;;;;;13.20;9.00;;;;;;;32.14;52.50;100994.71;217706;1292;139984;-89
2023/09/09 09:55:35;;;;;;;16.50;8.80;;;;;;;32.68;50.76;100990.38;218479;1289;138607;-88
2023/09/09 10:01:02;;;;;;;14.30;8.20;;;;;;;32.94;48.32;100986.33;217532;1290;140050;-88
2023/09/09 10:06:06;;;;;;;10.60;7.60;;;;;;;33.07;47.64;100978.70;218519;1288;137382;-88
2023/09/09 10:11:17;;;;;;;;;;;;;;;33.35;46.90;100968.11;217791;1288;140333;-88
2023/09/09 10:16:22;;;;;;;13.10;9.10;;;;;;;33.67;46.28;100963.48;218567;1288;124613;-90
2023/09/09 10:21:25;;;;;;;12.60;8.60;;;;;;;33.76;44.91;100956.66;217730;1288;139800;-89
2023/09/09 10:26:29;;;;;;;12.60;9.00;;;;;;;33.74;43.67;100958.84;218740;1289;96065;-87
2023/09/09 10:31:44;;;;;;;15.10;8.80;;;;;;;33.94;42.94;100959.77;217699;1288;139089;-88
2023/09/09 10:36:53;;;;;;;15.50;8.70;;;;;;;33.86;42.88;100955.40;218458;1289;138867;-89
2023/09/09 10:41:58;;;;;;;14.00;8.60;;;;;;;34.08;42.03;100957.73;217701;1288;139243;-90
2023/09/09 10:46:58;;;;;;;15.00;8.70;;;;;;;34.27;41.11;100957.95;218457;1289;138888;-87
2023/09/09 10:51:59;;;;;;;12.60;8.10;;;;;;;34.40;40.11;100953.73;217670;1291;141831;-88
2023/09/09 10:57:02;;;;;;;12.20;7.40;;;;;;;34.33;40.72;100951.12;218055;1288;338615;-87
2023/09/09 11:02:22;;;;;;;14.70;9.00;;;;;;;34.55;38.95;100953.34;217660;1292;140904;-88
2023/09/09 11:07:23;;;;;;;13.40;8.20;;;;;;;34.28;38.98;100953.48;218289;1290;138205;-88
2023/09/09 11:12:27;;;;;;;11.40;8.10;;;;;;;34.20;39.82;100945.30;217827;1288;140884;-89
2023/09/09 11:17:28;;;;;;;17.30;8.80;;;;;;;34.06;39.65;100942.83;218278;1293;138414;-87
2023/09/09 11:22:29;;;;;;;12.20;8.40;;;;;;;34.04;39.71;100938.90;217685;1291;141540;-88
2023/09/09 11:27:32;;;;;;;14.50;9.70;;;;;;;33.92;40.47;100932.83;218189;1289;138748;-88
2023/09/09 11:32:32;;;;;;;13.80;9.50;;;;;;;33.76;39.67;100933.35;217786;1290;142012;-88
2023/09/09 11:37:33;;;;;;;17.00;10.30;;;;;;;33.62;40.61;100929.35;218164;1291;138175;-87
2023/09/09 11:42:34;;;;;;;15.10;9.80;;;;;;;33.58;40.85;100922.29;217643;1291;141410;-88
2023/09/09 11:47:34;;;;;;;13.60;9.10;;;;;;;33.54;41.09;100924.08;218379;1289;138992;-88
2023/09/09 11:52:34;;;;;;;13.30;8.50;;;;;;;33.58;41.07;100921.62;217659;1291;139817;-87
2023/09/09 11:57:36;;;;;;;15.30;8.80;;;;;;;33.34;39.79;100914.71;218310;1289;138713;-87
2023/09/09 12:02:36;;;;;;;17.50;9.70;;;;;;;32.99;40.15;100905.48;217862;1288;140066;-87
2023/09/09 12:07:37;;;;;;;12.80;8.80;;;;;;;32.74;41.34;100902.77;218309;1292;139569;-89
2023/09/09 12:12:40;;;;;;;13.00;8.70;;;;;;;32.80;41.71;100900.10;217630;1292;140208;-88
2023/09/09 12:17:41;;;;;;;13.00;9.40;;;;;;;32.60;41.58;100896.49;218385;1289;139059;-88
2023/09/09 12:22:47;;;;;;;16.10;9.50;;;;;;;32.23;42.49;100897.78;217669;1289;140298;-88
2023/09/09 12:27:48;;;;;;;14.10;9.50;;;;;;;32.21;42.85;100890.94;218197;1291;138825;-89
2023/09/09 12:32:48;;;;;;;13.60;8.80;;;;;;;32.34;42.34;100889.08;217863;1288;140835;-87
2023/09/09 12:37:48;;;;;;;12.50;9.20;;;;;;;32.31;42.56;100887.52;218433;1288;138384;-87
2023/09/09 12:42:49;;;;;;;15.80;9.10;;;;;;;32.03;42.09;100890.32;217852;1288;139467;-88
2023/09/09 12:47:52;;;;;;;12.50;8.00;;;;;;;31.85;41.64;100896.58;218236;1288;139982;-86
2023/09/09 12:52:58;;;;;;;12.70;8.20;;;;;;;31.87;42.46;100886.13;217733;1293;140299;-87
2023/09/09 12:58:01;;;;;;;13.60;9.10;;;;;;;32.05;43.10;100878.41;218394;1290;139006;-86
2023/09/09 13:03:13;;;;;;;12.30;7.50;;;;;;;32.04;42.02;100876.29;217934;1288;141329;-86
2023/09/09 13:08:13;;;;;;;15.40;9.20;;;;;;;32.01;41.12;100872.30;218062;1293;138252;-88
2023/09/09 13:13:14;;;;;;;13.20;8.50;;;;;;;31.75;41.00;100868.16;217865;1292;141763;-87
2023/09/09 13:18:14;;;;;;;15.70;9.30;;;;;;;31.56;41.23;100861.87;218266;1289;138872;-87
2023/09/09 13:23:15;;;;;;;14.90;8.70;;;;;;;31.42;41.32;100859.80;217688;1294;140202;-86
2023/09/09 13:28:15;;;;;;;14.50;9.00;;;;;;;31.29;42.16;100859.05;218269;1292;138871;-87
2023/09/09 13:33:17;;;;;;;11.70;8.00;;;;;;;30.99;42.20;100851.29;217867;1292;140259;-86
2023/09/09 13:38:17;;;;;;;15.00;8.90;;;;;;;30.77;43.22;100846.80;218396;1288;139034;-86
2023/09/09 13:43:18;;;;;;;13.80;9.20;;;;;;;30.79;43.63;100843.19;217983;1288;140061;-86
2023/09/09 13:48:21;;;;;;;13.40;9.40;;;;;;;30.71;43.64;100837.25;218314;1289;139027;-85
2023/09/09 13:53:21;;;;;;;12.90;9.10;;;;;;;30.64;43.70;100836.83;217907;1288;139711;-87
2023/09/09 13:58:22;;;;;;;12.60;9.20;;;;;;;30.54;44.61;100838.94;218227;1289;139136;-87
2023/09/09 14:03:22;;;;;;;14.30;9.40;;;;;;;30.59;44.81;100834.34;217954;1289;140701;-85
2023/09/09 14:08:26;;;;;;;15.90;9.10;;;;;;;30.60;44.56;100833.56;218708;1290;96511;-86
2023/09/09 14:13:27;;;;;;;13.70;8.70;;;;;;;30.50;44.60;100830.75;217634;1289;139436;-86
2023/09/09 14:18:27;;;;;;;13.30;8.60;;;;;;;30.37;44.27;100828.58;218460;1288;138696;-87
2023/09/09 14:23:28;;;;;;;14.10;8.20;;;;;;;30.16;44.24;100826.77;217827;1289;139190;-87
2023/09/09 14:28:28;;;;;;;15.30;8.50;;;;;;;29.95;44.16;100818.45;218262;1289;138745;-88
2023/09/09 14:33:28;;;;;;;14.10;8.60;;;;;;;29.81;45.09;100811.73;217888;1289;140306;-88
2023/09/09 14:38:29;;;;;;;14.10;8.40;;;;;;;29.71;45.50;100814.95;218626;1288;96070;-87
2023/09/09 14:43:32;;;;;;;13.50;8.50;;;;;;;29.65;44.94;100814.50;217871;1290;140163;-86
2023/09/09 14:48:38;;;;;;;11.60;7.50;;;;;;;29.56;45.39;100812.54;218506;1289;140152;-88
2023/09/09 14:53:39;;;;;;;15.00;8.70;;;;;;;29.51;46.42;100809.58;217526;1292;140623;-88
2023/09/09 14:58:40;;;;;;;12.70;8.10;;;;;;;29.36;46.20;100805.98;218407;1288;139003;-87
2023/09/09 15:03:41;;;;;;;15.40;8.50;;;;;;;29.26;46.00;100807.59;217368;1288;141515;-86
2023/09/09 15:08:41;;;;;;;15.90;8.40;;;;;;;29.06;46.26;100807.23;218592;1288;95971;-87
2023/09/09 15:13:42;;;;;;;12.60;8.20;;;;;;;28.82;46.52;100803.87;217799;1291;140178;-87
2023/09/09 15:18:42;;;;;;;15.70;8.10;;;;;;;28.73;47.20;100802.84;218286;1288;139301;-87
2023/09/09 15:23:42;;;;;;;12.80;8.20;;;;;;;28.66;47.07;100800.42;217649;1289;141460;-85
2023/09/09 15:28:44;;;;;;;15.30;8.80;;;;;;;28.63;47.02;100797.29;218146;1289;139011;-85
2023/09/09 15:33:45;;;;;;;14.10;8.10;;;;;;;28.50;47.14;100793.64;217516;1288;139982;-85
2023/09/09 15:38:45;;;;;;;11.60;7.30;;;;;;;28.42;47.30;100795.64;218378;1291;96025;-87
2023/09/09 15:43:46;;;;;;;12.60;8.00;;;;;;;28.35;47.63;100788.96;217708;1288;141040;-87
2023/09/09 15:48:46;;;;;;;13.10;7.80;;;;;;;28.26;47.77;100790.13;218204;1288;138824;-87
2023/09/09 15:53:47;;;;;;;14.60;8.80;;;;;;;28.20;48.51;100788.44;217896;1289;141597;-86
2023/09/09 15:58:48;;;;;;;11.90;7.80;;;;;;;28.09;48.41;100793.13;218305;1289;139650;-88
2023/09/09 16:03:48;;;;;;;13.00;8.10;;;;;;;27.92;48.34;100794.26;217743;1288;140619;-86
2023/09/09 16:08:48;;;;;;;12.80;7.40;;;;;;;27.82;48.14;100793.81;218575;1288;95966;-85
2023/09/09 16:13:49;;;;;;;12.70;7.80;;;;;;;27.71;48.86;100790.66;217768;1288;142163;-87
2023/09/09 16:18:49;;;;;;;13.40;8.30;;;;;;;27.57;49.38;100785.75;218278;1288;138693;-86
2023/09/09 16:23:50;;;;;;;12.50;8.10;;;;;;;27.43;49.41;100787.57;217956;1288;141234;-87
2023/09/09 16:28:52;;;;;;;11.80;8.30;;;;;;;27.24;50.24;100784.45;218308;1289;138602;-87
2023/09/09 16:33:52;;;;;;;17.50;8.00;;;;;;;27.09;50.76;100784.38;217407;1293;139721;-87
2023/09/09 16:38:53;;;;;;;10.00;7.40;;;;;;;26.88;51.84;100782.41;218609;1288;96321;-87
2023/09/09 16:43:53;;;;;;;13.20;7.90;;;;;;;26.71;53.72;100784.80;217897;1288;140656;-87
2023/09/09 16:48:54;;;;;;;12.70;8.20;;;;;;;26.55;55.26;100791.94;218363;1288;138107;-87
2023/09/09 16:53:54;;;;;;;14.30;8.50;;;;;;;26.37;56.66;100790.89;217756;1290;141506;-88
2023/09/09 16:58:55;;;;;;;13.80;8.40;;;;;;;26.11;58.00;100791.73;218389;1288;138824;-87
2023/09/09 17:03:56;;;;;;;13.60;9.70;;;;;;;25.85;59.25;100792.18;217667;1289;139625;-87
2023/09/09 17:09:03;;;;;;;19.60;13.50;;;;;;;25.61;60.49;100794.02;218477;1291;96290;-89
2023/09/09 17:14:16;;;;;;;18.70;13.10;;;;;;;25.36;61.89;100794.71;217963;1289;139936;-87
2023/09/09 17:19:20;;;;;;;17.10;11.80;;;;;;;25.14;63.45;100796.79;217768;1288;140757;-87
2023/09/09 17:24:24;;;;;;;16.40;11.10;;;;;;;24.94;63.95;100798.19;218256;1288;138663;-87
2023/09/09 17:29:27;;;;;;;17.30;10.40;;;;;;;24.72;65.32;100801.95;217891;1289;141431;-87
2023/09/09 17:34:41;;;;;;;15.00;11.60;;;;;;;24.51;65.87;100806.97;218633;1290;138668;-88
2023/09/09 17:39:42;;;;;;;21.30;13.90;;;;;;;24.26;66.98;100807.16;217842;1288;140542;-89
2023/09/09 17:44:42;;;;;;;25.10;17.50;;;;;;;24.02;67.95;100811.69;218613;1288;96752;-89
2023/09/09 17:49:49;;;;;;;27.90;20.00;;;;;;;23.77;68.79;100817.41;218095;1288;140570;-88
2023/09/09 17:54:50;;;;;;;27.70;21.30;;;;;;;23.53;69.94;100812.60;218484;1288;138390;-90
2023/09/09 17:59:54;;;;;;;21.50;17.50;;;;;;;23.32;70.34;100812.94;217930;1288;141895;-90
2023/09/09 18:05:05;;;;;;;22.70;15.80;;;;;;;23.13;71.46;100812.39;218451;1288;139382;-90
2023/09/09 18:10:06;;;;;;;22.60;16.70;;;;;;;22.90;72.33;100813.80;217816;1288;140456;-89
2023/09/09 18:15:21;;;;;;;24.70;19.50;;;;;;;22.71;72.88;100810.52;218538;1288;96285;-90
2023/09/09 18:20:31;;;;;;;29.20;20.00;;;;;;;22.55;74.01;100814.95;217672;1291;140718;-90
2023/09/09 18:25:32;;;;;;;27.90;19.90;;;;;;;22.34;74.73;100819.30;218366;1288;139915;-89
2023/09/09 18:30:40;;;;;;;30.20;21.30;;;;;;;22.16;75.36;100821.98;217882;1288;141144;-91
2023/09/09 18:35:41;;;;;;;30.50;19.80;;;;;;;22.01;76.06;100825.55;218357;1289;140642;-89
2023/09/09 18:40:42;;;;;;;29.50;19.50;;;;;;;21.87;76.73;100825.98;217892;1289;140165;-89
2023/09/09 18:45:43;;;;;;;20.30;16.40;;;;;;;21.72;77.44;100827.03;218273;1289;139634;-89
2023/09/09 18:50:45;;;;;;;20.20;15.60;;;;;;;21.60;78.18;100826.88;217900;1288;142098;-89
2023/09/09 18:55:46;;;;;;;21.90;15.70;;;;;;;21.47;78.42;100823.41;218166;1288;139658;-89
2023/09/09 19:00:46;;;;;;;23.30;16.10;;;;;;;21.38;78.76;100821.89;217725;1288;142123;-90
2023/09/09 19:05:47;;;;;;;23.60;14.80;;;;;;;21.26;79.66;100824.04;218207;1288;139267;-88
2023/09/09 19:10:47;;;;;;;23.10;15.10;;;;;;;21.16;79.32;100827.67;217768;1288;142611;-88
2023/09/09 19:15:48;;;;;;;24.30;15.00;;;;;;;21.08;79.71;100829.31;218170;1288;140335;-87
2023/09/09 19:20:52;;;;;;;20.00;15.30;;;;;;;20.93;80.45;100830.01;217841;1288;142864;-86
2023/09/09 19:25:56;;;;;;;25.10;16.30;;;;;;;20.77;81.33;100832.05;218238;1288;140491;-86
2023/09/09 19:30:56;;;;;;;23.80;15.80;;;;;;;20.60;81.70;100831.89;217589;1288;142568;-87
2023/09/09 19:35:58;;;;;;;26.70;16.30;;;;;;;20.50;81.91;100831.88;218306;1288;140707;-86
2023/09/09 19:40:58;;;;;;;22.80;15.80;;;;;;;20.42;81.91;100836.08;217644;1289;141511;-86
2023/09/09 19:45:59;;;;;;;21.40;16.10;;;;;;;20.29;82.75;100835.40;218352;1288;139891;-87
2023/09/09 19:50:59;;;;;;;22.00;16.20;;;;;;;20.13;83.42;100832.48;217656;1288;140805;-87
2023/09/09 19:56:00;;;;;;;22.20;15.90;;;;;;;20.05;83.52;100831.20;218148;1289;139721;-87
2023/09/09 20:01:00;;;;;;;19.80;15.30;;;;;;;19.97;83.64;100826.34;217656;1288;141027;-87
2023/09/09 20:06:02;;;;;;;22.60;16.30;;;;;;;19.85;84.82;100826.26;218162;1288;140048;-87
2023/09/09 20:11:04;;;;;;;24.00;17.00;;;;;;;19.70;85.68;100828.10;217740;1288;141509;-87
2023/09/09 20:16:05;;;;;;;21.50;16.80;;;;;;;19.56;86.37;100829.80;218050;1288;139219;-88
2023/09/09 20:21:06;;;;;;;20.70;15.00;;;;;;;19.46;86.63;100830.14;217751;1289;140700;-88
2023/09/09 20:26:06;;;;;;;24.20;17.40;;;;;;;19.40;86.73;100832.88;218334;1288;139305;-88
2023/09/09 20:31:07;;;;;;;22.30;17.30;;;;;;;19.34;87.37;100833.71;217778;1290;143485;-88
2023/09/09 20:36:10;;;;;;;21.90;17.40;;;;;;;19.26;87.66;100832.77;218371;1289;139971;-87
2023/09/09 20:41:10;;;;;;;23.10;18.20;;;;;;;19.19;87.88;100828.94;217710;1288;141896;-88
2023/09/09 20:46:12;;;;;;;22.50;16.70;;;;;;;19.09;88.63;100830.46;218289;1288;139775;-88
2023/09/09 20:51:13;;;;;;;23.10;17.90;;;;;;;18.99;89.05;100832.88;217845;1288;140683;-88
2023/09/09 20:56:17;;;;;;;24.50;18.80;;;;;;;18.89;89.87;100826.58;218191;1288;139503;-87
2023/09/09 21:01:18;;;;;;;24.70;19.00;;;;;;;18.79;90.48;100831.45;217505;1288;141380;-88
2023/09/09 21:06:18;;;;;;;22.30;16.50;;;;;;;18.72;89.96;100832.52;218353;1288;139886;-88
2023/09/09 21:11:19;;;;;;;27.20;20.60;;;;;;;18.67;90.66;100829.72;217549;1289;140684;-88
2023/09/09 21:16:20;;;;;;;24.70;19.60;;;;;;;18.57;91.28;100831.54;218341;1288;139815;-88
2023/09/09 21:21:21;;;;;;;25.60;20.30;;;;;;;18.51;90.97;100828.94;217802;1288;141337;-87
2023/09/09 21:26:21;;;;;;;29.60;20.90;;;;;;;18.44;91.78;100832.69;218330;1289;139422;-87
2023/09/09 21:31:22;;;;;;;25.90;20.60;;;;;;;18.37;91.87;100826.51;217903;1288;143707;-87
2023/09/09 21:36:22;;;;;;;23.90;17.50;;;;;;;18.29;92.46;100820.93;218236;1288;140275;-88
2023/09/09 21:41:23;;;;;;;29.70;20.50;;;;;;;18.23;92.46;100821.89;217768;1288;141605;-88
2023/09/09 21:46:23;;;;;;;25.30;20.00;;;;;;;18.16;92.82;100823.91;218328;1289;140445;-87
2023/09/09 21:51:24;;;;;;;25.50;19.90;;;;;;;18.11;93.04;100822.38;217905;1288;142278;-87
2023/09/09 21:56:24;;;;;;;24.90;19.10;;;;;;;18.02;93.56;100822.73;218313;1288;139885;-88
2023/09/09 22:01:25;;;;;;;25.30;18.60;;;;;;;17.97;92.95;100821.92;217797;1289;141505;-87
2023/09/09 22:06:25;;;;;;;24.90;17.70;;;;;;;17.94;93.52;100820.61;218283;1288;139788;-87
2023/09/09 22:11:26;;;;;;;21.40;16.90;;;;;;;17.88;93.26;100818.54;217730;1288;142456;-88
2023/09/09 22:16:27;;;;;;;20.30;16.80;;;;;;;17.84;93.47;100813.58;218222;1288;140035;-87
2023/09/09 22:21:27;;;;;;;28.00;21.20;;;;;;;17.81;93.03;100815.53;217933;1290;141289;-87
2023/09/09 22:26:29;;;;;;;27.80;20.90;;;;;;;17.78;92.49;100813.65;218129;1288;139226;-87